Time;durP1;ratioP1;P1;durP2;ratioP2;P2;SDS_P1;SDS_P2;PMS_P1;PMS_P2;Temp;Humidity;BMP_temperature;BMP_pressure;BME280_temperature;BME280_humidity;BME280_pressure;Samples;Min_cycle;Max_cycle;Signal;HPM_P1;HPM_P2
2022/08/30 00:02:33;;;;;;;6.97;4.15;;;16.80;99.90;;;;;;5072892;28;20098;-61
2022/08/30 00:05:00;;;;;;;7.03;3.90;;;16.60;99.90;;;;;;5073055;28;20492;-61
2022/08/30 00:07:26;;;;;;;9.60;4.43;;;16.80;99.90;;;;;;5072960;28;20111;-61
2022/08/30 00:09:52;;;;;;;10.20;4.35;;;;;;;;;;5071904;28;20124;-62
2022/08/30 00:12:21;;;;;;;8.43;4.40;;;16.70;99.90;;;;;;5072624;28;20041;-61
2022/08/30 00:14:48;;;;;;;7.03;4.28;;;16.80;99.90;;;;;;5072889;28;20040;-61
2022/08/30 00:17:14;;;;;;;8.13;4.00;;;16.60;99.90;;;;;;5072788;28;20040;-61
2022/08/30 00:19:41;;;;;;;7.88;4.00;;;17.30;99.90;;;;;;5072915;28;20037;-61
2022/08/30 00:22:08;;;;;;;6.90;4.07;;;16.60;99.90;;;;;;5072887;28;20044;-61
2022/08/30 00:24:34;;;;;;;8.27;4.05;;;16.50;99.90;;;;;;5072961;28;20112;-61
2022/08/30 00:27:00;;;;;;;6.20;4.32;;;17.30;99.90;;;;;;5072788;28;20072;-61
2022/08/30 00:29:26;;;;;;;6.88;4.25;;;16.60;99.90;;;;;;5072782;28;20037;-61
2022/08/30 00:31:53;;;;;;;7.97;4.30;;;;;;;;;;5072616;28;20492;-62
2022/08/30 00:34:19;;;;;;;8.68;4.57;;;16.60;99.90;;;;;;5072873;28;20040;-61
2022/08/30 00:36:45;;;;;;;9.73;4.35;;;16.70;99.90;;;;;;5072997;28;20048;-61
2022/08/30 00:39:10;;;;;;;8.98;4.35;;;16.60;99.90;;;;;;5072796;28;20396;-62
2022/08/30 00:41:37;;;;;;;8.38;4.40;;;16.50;99.90;;;;;;5072774;28;20040;-61
2022/08/30 00:44:03;;;;;;;8.10;4.68;;;16.30;99.90;;;;;;5072610;28;20076;-61
2022/08/30 00:46:29;;;;;;;8.68;4.63;;;16.40;99.90;;;;;;5071248;28;20048;-62
2022/08/30 00:48:55;;;;;;;7.45;4.63;;;16.40;99.90;;;;;;5072816;28;20041;-61
2022/08/30 00:51:23;;;;;;;8.02;4.70;;;16.60;99.90;;;;;;5072798;28;20121;-61
2022/08/30 00:53:53;;;;;;;9.15;4.85;;;16.40;99.90;;;;;;5072541;28;20051;-61
2022/08/30 00:56:21;;;;;;;8.82;5.10;;;16.50;99.90;;;;;;5066828;28;20135;-61
2022/08/30 00:58:51;;;;;;;11.27;5.05;;;16.50;99.90;;;;;;5058448;28;20559;-61
2022/08/30 01:01:18;;;;;;;11.20;4.90;;;16.40;99.90;;;;;;5063411;28;20516;-61
2022/08/30 01:03:45;;;;;;;9.05;4.90;;;16.30;99.90;;;;;;5065386;28;20048;-61
2022/08/30 01:06:14;;;;;;;6.50;4.60;;;16.40;99.90;;;;;;5052421;28;20037;-61
2022/08/30 01:08:40;;;;;;;10.68;5.22;;;16.40;99.90;;;;;;5064580;28;20093;-61
2022/08/30 01:11:07;;;;;;;11.27;4.85;;;15.80;99.90;;;;;;5072602;28;20044;-59
2022/08/30 01:13:34;;;;;;;10.15;5.07;;;16.40;99.90;;;;;;5072636;28;20037;-58
2022/08/30 01:16:01;;;;;;;9.98;4.82;;;16.40;99.90;;;;;;5070449;28;20192;-59
2022/08/30 01:18:27;;;;;;;7.03;4.75;;;16.20;99.90;;;;;;5052388;28;20045;-58
2022/08/30 01:20:57;;;;;;;7.68;5.15;;;16.20;99.90;;;;;;5052446;28;20155;-58
2022/08/30 01:23:24;;;;;;;8.70;5.00;;;16.50;99.90;;;;;;5052394;28;20117;-59
2022/08/30 01:25:53;;;;;;;8.32;4.95;;;15.40;99.90;;;;;;5054692;28;20041;-58
2022/08/30 01:28:24;;;;;;;8.93;5.10;;;16.00;99.90;;;;;;5055685;28;20037;-58
2022/08/30 01:30:52;;;;;;;10.10;5.20;;;16.30;99.90;;;;;;5055984;28;20041;-58
2022/08/30 01:33:21;;;;;;;6.50;4.80;;;;;;;;;;5059715;28;20040;-59
2022/08/30 01:36:01;;;;;;;8.15;4.90;;;16.20;99.90;;;;;;5075487;28;20123;-58
2022/08/30 01:38:53;;;;;;;8.60;5.00;;;16.40;99.90;;;;;;5075669;28;20072;-59
2022/08/30 01:41:24;;;;;;;12.57;5.03;;;16.20;99.90;;;;;;5072291;28;20588;-59
2022/08/30 01:43:54;;;;;;;7.57;4.88;;;16.10;99.90;;;;;;5075852;28;20036;-59
2022/08/30 01:46:23;;;;;;;8.70;4.88;;;16.00;99.90;;;;;;5075336;28;20109;-58
2022/08/30 01:48:49;;;;;;;8.90;4.85;;;16.10;99.90;;;;;;5075589;28;20365;-59
2022/08/30 01:51:15;;;;;;;10.18;4.50;;;15.90;99.90;;;;;;5075512;28;20353;-59
2022/08/30 01:53:43;;;;;;;6.97;4.88;;;16.20;99.90;;;;;;5075607;28;20353;-58
2022/08/30 01:56:09;;;;;;;8.18;4.60;;;;;;;;;;5075822;28;20082;-59
2022/08/30 01:58:37;;;;;;;7.78;4.80;;;18.00;99.90;;;;;;5075138;28;20046;-58
2022/08/30 02:01:06;;;;;;;6.50;4.50;;;16.00;99.90;;;;;;5074998;28;20136;-58
2022/08/30 02:03:34;;;;;;;8.05;5.00;;;;;;;;;;5075335;28;20047;-58
2022/08/30 02:06:07;;;;;;;9.27;5.28;;;16.00;99.90;;;;;;5075121;28;20044;-58
2022/08/30 02:08:34;;;;;;;7.68;4.85;;;15.80;99.90;;;;;;5061760;28;20040;-58
2022/08/30 02:11:00;;;;;;;12.80;5.55;;;16.40;99.90;;;;;;5055375;28;20047;-58
2022/08/30 02:13:26;;;;;;;6.93;5.35;;;15.90;99.90;;;;;;5055336;28;20041;-58
2022/08/30 02:15:55;;;;;;;9.23;5.68;;;15.70;99.90;;;;;;5053953;28;20047;-58
2022/08/30 02:18:23;;;;;;;11.27;5.65;;;15.70;99.90;;;;;;5054870;28;20041;-58
2022/08/30 02:20:48;;;;;;;8.93;5.55;;;15.70;99.90;;;;;;5054721;28;20041;-58
2022/08/30 02:23:14;;;;;;;8.02;5.53;;;15.60;99.90;;;;;;5055140;28;20037;-58
2022/08/30 02:25:40;;;;;;;12.13;5.47;;;15.60;99.90;;;;;;5054640;28;20112;-59
2022/08/30 02:28:06;;;;;;;8.98;5.63;;;15.60;99.90;;;;;;5054697;28;20385;-58
2022/08/30 02:30:34;;;;;;;10.40;6.25;;;15.80;99.90;;;;;;5054662;28;20041;-58
2022/08/30 02:33:00;;;;;;;13.20;5.90;;;;;;;;;;5054526;28;20040;-58
2022/08/30 02:35:25;;;;;;;9.50;5.97;;;15.50;99.90;;;;;;5053180;28;20037;-58
2022/08/30 02:37:51;;;;;;;9.18;5.60;;;15.40;99.90;;;;;;5054440;28;20370;-58
2022/08/30 02:40:18;;;;;;;8.88;5.95;;;15.80;99.90;;;;;;5054310;28;20124;-58
2022/08/30 02:42:44;;;;;;;9.75;5.88;;;15.40;99.90;;;;;;5053191;28;20052;-58
2022/08/30 02:45:10;;;;;;;8.95;6.00;;;15.30;99.90;;;;;;5054571;28;20404;-58
2022/08/30 02:47:36;;;;;;;9.80;6.25;;;15.20;99.90;;;;;;5054479;28;20036;-58
2022/08/30 02:50:07;;;;;;;8.88;5.90;;;15.60;99.90;;;;;;5054597;28;20472;-58
2022/08/30 02:52:33;;;;;;;9.95;6.03;;;15.40;99.90;;;;;;5054160;28;20076;-58
2022/08/30 02:54:59;;;;;;;10.35;6.32;;;15.40;99.90;;;;;;5053954;28;20084;-58
2022/08/30 02:57:25;;;;;;;8.40;5.70;;;15.40;99.90;;;;;;5054455;28;20045;-58
2022/08/30 02:59:52;;;;;;;10.02;6.45;;;15.30;99.90;;;;;;5054183;28;20056;-58
2022/08/30 03:02:17;;;;;;;10.95;5.90;;;15.40;99.90;;;;;;5054226;28;20076;-58
2022/08/30 03:04:43;;;;;;;11.88;5.88;;;15.40;99.90;;;;;;5053847;28;20083;-59
2022/08/30 03:07:11;;;;;;;11.30;5.63;;;16.00;99.90;;;;;;5052660;28;20570;-58
2022/08/30 03:09:37;;;;;;;8.38;5.68;;;15.40;99.90;;;;;;5052581;28;20040;-58
2022/08/30 03:12:05;;;;;;;8.90;5.65;;;15.30;99.90;;;;;;5053963;28;20115;-58
2022/08/30 03:14:34;;;;;;;7.60;5.60;;;15.10;99.90;;;;;;5054031;28;20041;-58
2022/08/30 03:16:59;;;;;;;8.68;5.35;;;15.30;99.90;;;;;;5053623;28;20055;-58
2022/08/30 03:19:25;;;;;;;7.53;5.40;;;15.30;99.90;;;;;;5053658;28;20040;-58
2022/08/30 03:21:51;;;;;;;10.88;5.43;;;14.60;99.90;;;;;;5053379;28;20124;-61
2022/08/30 03:24:17;;;;;;;8.82;5.50;;;15.00;99.90;;;;;;5053904;28;20076;-61
2022/08/30 03:26:43;;;;;;;7.10;5.53;;;15.10;99.90;;;;;;5053873;28;20033;-61
2022/08/30 03:29:09;;;;;;;9.30;5.55;;;14.60;99.90;;;;;;5053561;28;20102;-61
2022/08/30 03:31:35;;;;;;;9.02;5.53;;;14.40;99.90;;;;;;5053776;28;20443;-58
2022/08/30 03:34:02;;;;;;;8.85;5.60;;;15.00;99.90;;;;;;5053593;28;20119;-58
2022/08/30 03:36:27;;;;;;;11.35;5.85;;;15.30;99.90;;;;;;5053569;28;20068;-58
2022/08/30 03:38:53;;;;;;;9.32;6.07;;;14.20;99.90;;;;;;5053605;28;20445;-59
2022/08/30 03:41:19;;;;;;;10.55;5.93;;;;;;;;;;5052272;28;20041;-58
2022/08/30 03:43:46;;;;;;;9.68;6.00;;;14.90;99.90;;;;;;5053479;28;20036;-58
2022/08/30 03:46:13;;;;;;;7.97;6.30;;;14.80;99.90;;;;;;5053314;28;20068;-58
2022/08/30 03:48:40;;;;;;;10.98;6.22;;;15.10;99.90;;;;;;5052995;28;20037;-59
2022/08/30 03:51:06;;;;;;;15.73;6.75;;;13.80;99.90;;;;;;5053047;28;20077;-58
2022/08/30 03:53:32;;;;;;;9.35;6.55;;;14.50;99.90;;;;;;5053420;28;20040;-58
2022/08/30 03:55:58;;;;;;;10.45;6.97;;;14.60;99.90;;;;;;5053368;28;20095;-58
2022/08/30 03:58:23;;;;;;;8.82;6.53;;;14.10;99.90;;;;;;5053410;28;20120;-58
2022/08/30 04:00:50;;;;;;;10.32;7.00;;;14.40;99.90;;;;;;5052798;28;20060;-62
2022/08/30 04:03:17;;;;;;;11.18;7.10;;;;;;;;;;5053021;28;20507;-61
2022/08/30 04:05:44;;;;;;;10.88;7.57;;;14.50;99.90;;;;;;5053073;28;20041;-61
2022/08/30 04:08:11;;;;;;;11.48;7.45;;;14.30;99.90;;;;;;5051746;28;20045;-61
2022/08/30 04:10:36;;;;;;;12.10;7.90;;;14.30;99.90;;;;;;5053025;28;20068;-61
2022/08/30 04:13:04;;;;;;;13.98;8.50;;;;;;;;;;5053017;28;20404;-61
2022/08/30 04:15:30;;;;;;;13.07;8.65;;;;;;;;;;5051896;28;20432;-61
2022/08/30 04:17:56;;;;;;;10.20;8.23;;;14.10;99.90;;;;;;5053332;28;20072;-61
2022/08/30 04:20:22;;;;;;;11.27;8.85;;;;;;;;;;5052645;28;20044;-61
2022/08/30 04:22:47;;;;;;;11.57;8.32;;;14.30;99.90;;;;;;5051942;28;20090;-61
2022/08/30 04:25:13;;;;;;;13.27;8.70;;;14.30;99.90;;;;;;5053009;28;20036;-61
2022/08/30 04:27:39;;;;;;;12.90;8.60;;;14.10;99.90;;;;;;5052916;28;20048;-61
2022/08/30 04:30:08;;;;;;;12.55;9.13;;;14.00;99.90;;;;;;5053171;28;20037;-60
2022/08/30 04:32:35;;;;;;;10.35;8.85;;;13.60;99.90;;;;;;5052992;28;20053;-61
2022/08/30 04:35:01;;;;;;;12.05;8.52;;;14.70;99.90;;;;;;5051674;28;20041;-61
2022/08/30 04:37:28;;;;;;;14.65;8.70;;;14.00;99.90;;;;;;5052902;28;20065;-61
2022/08/30 04:40:01;;;;;;;13.13;8.88;;;13.80;99.90;;;;;;5050717;28;20045;-61
2022/08/30 04:42:31;;;;;;;;;;;14.00;99.90;;;;;;5050987;28;20481;-61
2022/08/30 04:44:59;;;;;;;12.32;9.23;;;13.90;99.90;;;;;;5050476;28;19964;-61
2022/08/30 04:47:25;;;;;;;14.23;9.35;;;13.90;99.90;;;;;;5050034;28;20048;-61
2022/08/30 04:49:53;;;;;;;12.50;9.38;;;13.90;99.90;;;;;;5050584;28;20028;-62
2022/08/30 04:52:19;;;;;;;11.63;9.30;;;13.10;99.90;;;;;;5051321;28;20567;-61
2022/08/30 04:54:44;;;;;;;14.18;9.02;;;14.10;99.90;;;;;;5051755;28;20076;-61
2022/08/30 04:57:10;;;;;;;11.38;8.80;;;14.70;99.90;;;;;;5051920;28;20037;-61
2022/08/30 04:59:37;;;;;;;19.77;9.50;;;13.80;99.90;;;;;;5052833;28;20053;-61
2022/08/30 05:02:03;;;;;;;14.00;9.80;;;14.00;99.90;;;;;;5055363;28;20036;-61
2022/08/30 05:04:33;;;;;;;12.55;8.93;;;;;;;;;;5054871;28;20045;-61
2022/08/30 05:06:59;;;;;;;13.07;9.07;;;;;;;;;;5055705;28;20033;-61
2022/08/30 05:09:24;;;;;;;10.57;8.75;;;13.50;99.90;;;;;;5054847;28;20416;-61
2022/08/30 05:11:50;;;;;;;11.25;8.40;;;;;;;;;;5055165;28;20124;-61
2022/08/30 05:14:16;;;;;;;13.90;9.02;;;13.70;99.90;;;;;;5054875;28;20573;-61
2022/08/30 05:16:42;;;;;;;16.80;8.88;;;13.70;99.90;;;;;;5055157;28;20054;-62
2022/08/30 05:19:08;;;;;;;10.80;8.75;;;13.50;99.90;;;;;;5054590;28;20037;-62
2022/08/30 05:21:36;;;;;;;12.18;9.00;;;;;;;;;;5059229;28;20568;-62
2022/08/30 05:24:02;;;;;;;13.25;8.43;;;14.00;99.90;;;;;;5075190;28;20041;-61
2022/08/30 05:26:31;;;;;;;13.20;8.70;;;14.00;99.90;;;;;;5075490;28;20102;-61
2022/08/30 05:28:57;;;;;;;12.45;8.65;;;14.00;99.90;;;;;;5075190;28;20038;-62
2022/08/30 05:31:29;;;;;;;11.05;7.65;;;15.00;99.90;;;;;;5075609;28;20051;-62
2022/08/30 05:33:55;;;;;;;9.70;6.88;;;14.90;99.90;;;;;;5075948;28;20085;-62
2022/08/30 05:36:24;;;;;;;9.32;6.25;;;16.50;99.90;;;;;;5075784;28;20041;-62
2022/08/30 05:38:50;;;;;;;7.30;5.57;;;16.70;99.90;;;;;;5075461;28;20052;-62
2022/08/30 05:41:19;;;;;;;8.30;5.50;;;19.30;99.90;;;;;;5075351;28;20040;-63
2022/08/30 05:43:45;;;;;;;8.07;5.40;;;18.40;99.90;;;;;;5075572;28;20064;-62
2022/08/30 05:46:13;;;;;;;9.45;5.15;;;19.60;99.90;;;;;;5075400;28;20117;-63
2022/08/30 05:48:39;;;;;;;7.40;4.95;;;20.10;99.90;;;;;;5074244;28;20469;-60
2022/08/30 05:51:14;;;;;;;8.13;5.13;;;20.80;99.90;;;;;;5075415;28;20369;-61
2022/08/30 05:53:40;;;;;;;8.05;4.80;;;21.00;99.90;;;;;;5075332;28;20193;-61
2022/08/30 05:56:09;;;;;;;5.95;4.60;;;21.70;99.90;;;;;;5074920;28;20048;-61
2022/08/30 05:58:36;;;;;;;8.75;4.50;;;21.80;99.90;;;;;;5075362;28;20048;-61
2022/08/30 06:01:02;;;;;;;8.68;4.47;;;22.70;99.90;;;;;;5074962;28;20058;-61
2022/08/30 06:03:31;;;;;;;7.65;4.70;;;23.00;99.90;;;;;;5074485;28;20040;-61
2022/08/30 06:05:58;;;;;;;9.25;4.47;;;23.90;99.90;;;;;;5073776;28;20045;-61
2022/08/30 06:08:24;;;;;;;12.95;4.40;;;23.80;99.90;;;;;;5074977;28;20492;-58
2022/08/30 06:10:50;;;;;;;7.30;4.18;;;24.10;99.20;;;;;;5074873;28;20082;-58
2022/08/30 06:13:16;;;;;;;7.60;4.10;;;24.50;97.70;;;;;;5073634;28;20411;-58
2022/08/30 06:15:44;;;;;;;7.75;3.95;;;24.80;99.90;;;;;;5073934;28;20045;-59
2022/08/30 06:18:11;;;;;;;8.65;3.72;;;25.10;94.40;;;;;;5074646;28;20094;-59
2022/08/30 06:20:54;;;;;;;7.38;4.00;;;25.60;92.50;;;;;;5074644;28;20082;-59
2022/08/30 06:23:21;;;;;;;6.53;3.70;;;25.80;90.00;;;;;;5074977;28;20032;-62
2022/08/30 06:25:47;;;;;;;6.75;3.50;;;25.70;88.00;;;;;;5074850;28;20460;-62
2022/08/30 06:28:13;;;;;;;7.32;3.60;;;25.70;86.60;;;;;;5074516;28;20119;-62
2022/08/30 06:30:40;;;;;;;10.82;3.80;;;25.90;85.10;;;;;;5074509;28;20479;-62
2022/08/30 06:33:06;;;;;;;9.40;3.38;;;26.00;82.60;;;;;;5074425;28;20032;-62
2022/08/30 06:35:34;;;;;;;8.02;3.53;;;26.20;81.70;;;;;;5074347;28;20124;-62
2022/08/30 06:37:59;;;;;;;5.50;3.13;;;26.40;79.70;;;;;;5074329;28;20045;-62
2022/08/30 06:40:25;;;;;;;8.00;3.38;;;26.70;77.80;;;;;;5073260;28;20082;-62
2022/08/30 06:42:51;;;;;;;5.40;3.10;;;27.00;76.50;;;;;;5074285;28;20477;-62
2022/08/30 06:45:19;;;;;;;5.80;2.90;;;27.40;85.30;;;;;;5074295;28;20033;-62
2022/08/30 06:47:46;;;;;;;19.67;4.00;;;27.40;72.50;;;;;;5070880;28;20039;-62
2022/08/30 06:50:14;;;;;;;11.43;3.00;;;27.60;70.70;;;;;;5073630;28;20043;-62
2022/08/30 06:52:41;;;;;;;6.07;2.67;;;28.00;74.90;;;;;;5074264;28;20051;-62
2022/08/30 06:55:17;;;;;;;7.13;3.03;;;28.10;72.80;;;;;;5074089;28;20044;-64
2022/08/30 06:57:44;;;;;;;7.43;2.83;;;28.30;63.40;;;;;;5088420;28;20126;-64
2022/08/30 07:00:14;;;;;;;4.80;2.85;;;27.90;75.30;;;;;;5071938;28;20060;-63
2022/08/30 07:02:40;;;;;;;5.50;2.85;;;28.30;72.90;;;;;;5072081;28;20503;-63
2022/08/30 07:05:11;;;;;;;6.15;2.90;;;28.30;63.00;;;;;;5074214;28;20040;-63
2022/08/30 07:07:37;;;;;;;8.98;2.60;;;28.10;62.00;;;;;;5074048;28;20036;-63
2022/08/30 07:10:07;;;;;;;14.35;2.70;;;28.30;61.60;;;;;;5073514;28;20035;-63
2022/08/30 07:12:33;;;;;;;14.10;2.90;;;28.30;61.10;;;;;;5073563;28;20037;-63
2022/08/30 07:15:00;;;;;;;10.52;2.80;;;28.20;61.20;;;;;;5074231;28;20066;-63
2022/08/30 07:20:11;;;;;;;5.20;2.50;;;28.40;72.00;;;;;;5073596;28;20476;-63
2022/08/30 07:22:36;;;;;;;4.25;2.20;;;28.60;59.40;;;;;;5072044;28;20040;-63
2022/08/30 07:25:02;;;;;;;4.13;2.40;;;28.60;58.70;;;;;;5073062;28;20085;-63
2022/08/30 07:27:30;;;;;;;3.45;2.10;;;28.40;58.20;;;;;;5073871;28;20117;-62
2022/08/30 07:29:59;;;;;;;5.93;2.20;;;28.20;58.10;;;;;;5071986;28;20373;-62
2022/08/30 07:32:25;;;;;;;4.30;2.08;;;28.00;69.00;;;;;;5071554;28;20083;-63
2022/08/30 07:34:51;;;;;;;4.85;2.05;;;28.30;69.50;;;;;;5072885;28;20456;-63
2022/08/30 07:37:16;;;;;;;3.85;1.83;;;27.70;58.60;;;;;;5071727;28;20114;-63
2022/08/30 07:39:42;;;;;;;6.05;1.98;;;27.90;58.60;;;;;;5071810;28;20530;-63
2022/08/30 07:42:08;;;;;;;4.65;2.10;;;28.50;70.40;;;;;;5071259;28;20545;-63
2022/08/30 07:44:33;;;;;;;4.40;1.80;;;29.00;67.00;;;;;;5073054;28;20032;-62
2022/08/30 07:46:59;;;;;;;5.40;2.00;;;28.30;67.50;;;;;;5072396;28;20052;-62
2022/08/30 07:49:25;;;;;;;3.45;2.10;;;28.40;57.00;;;;;;5072864;28;20064;-63
2022/08/30 07:51:51;;;;;;;4.28;2.10;;;27.90;66.60;;;;;;5073091;28;20041;-62
2022/08/30 07:54:19;;;;;;;4.90;2.13;;;27.10;68.10;;;;;;5071766;28;20056;-62
2022/08/30 07:56:45;;;;;;;5.28;2.00;;;27.00;59.10;;;;;;5073084;28;20391;-62
2022/08/30 07:59:11;;;;;;;5.57;2.20;;;26.40;69.20;;;;;;5072630;28;20040;-62
2022/08/30 08:01:36;;;;;;;5.68;2.42;;;26.30;61.50;;;;;;5073205;28;20036;-62
2022/08/30 08:04:02;;;;;;;5.55;2.22;;;25.70;63.40;;;;;;5073033;28;20388;-61
2022/08/30 08:06:28;;;;;;;6.28;2.20;;;24.70;79.20;;;;;;5073033;28;20063;-63
2022/08/30 08:08:55;;;;;;;9.20;2.78;;;24.70;67.20;;;;;;5073352;28;20044;-63
2022/08/30 08:11:25;;;;;;;5.63;2.30;;;24.30;80.70;;;;;;5072919;28;20045;-63
2022/08/30 08:13:52;;;;;;;8.63;2.35;;;23.80;81.30;;;;;;5072039;28;20048;-62
2022/08/30 08:16:20;;;;;;;14.68;2.63;;;23.60;84.00;;;;;;5073083;28;20365;-62
2022/08/30 08:18:47;;;;;;;4.72;2.38;;;;;;;;;;5072983;28;20048;-63
2022/08/30 08:21:13;;;;;;;4.45;2.35;;;23.20;73.60;;;;;;5054816;28;20044;-64
2022/08/30 08:23:39;;;;;;;6.07;2.38;;;22.90;83.80;;;;;;5073059;28;20048;-63
2022/08/30 08:26:05;;;;;;;12.38;2.70;;;22.60;76.20;;;;;;5072637;28;20044;-61
2022/08/30 08:28:31;;;;;;;4.22;2.17;;;23.00;87.30;;;;;;5073026;28;20094;-61
2022/08/30 08:31:00;;;;;;;4.80;2.20;;;22.50;78.00;;;;;;5072538;28;20044;-62
2022/08/30 08:33:26;;;;;;;6.43;2.05;;;22.20;78.50;;;;;;5073955;28;20116;-62
2022/08/30 08:35:52;;;;;;;4.38;2.20;;;21.80;89.60;;;;;;5076828;28;20045;-62
2022/08/30 08:38:18;;;;;;;3.38;1.83;;;21.30;89.50;;;;;;5077101;28;20063;-62
2022/08/30 08:41:04;;;;;;;14.88;2.38;;;22.30;90.40;;;;;;5076383;28;20165;-63
2022/08/30 08:43:33;;;;;;;3.67;2.00;;;21.80;88.10;;;;;;5075378;28;20480;-62
2022/08/30 08:46:29;;;;;;;7.63;2.00;;;21.60;91.00;;;;;;5076836;28;20044;-63
2022/08/30 08:49:00;;;;;;;6.85;2.00;;;20.80;90.80;;;;;;5076694;28;20127;-63
2022/08/30 08:54:31;;;;;;;5.85;2.20;;;21.80;90.60;;;;;;5076439;28;20515;-64
2022/08/30 08:56:58;;;;;;;9.10;1.90;;;21.70;81.80;;;;;;5076440;28;20036;-63
2022/08/30 08:59:24;;;;;;;7.75;1.95;;;22.00;80.90;;;;;;5076218;28;20053;-63
2022/08/30 09:02:01;;;;;;;6.97;1.83;;;22.40;78.50;;;;;;5076589;28;20055;-63
2022/08/30 09:04:36;;;;;;;6.88;2.25;;;23.10;86.80;;;;;;5076568;28;20043;-63
2022/08/30 09:07:19;;;;;;;9.45;2.20;;;22.50;76.70;;;;;;5076265;28;20507;-63
2022/08/30 09:09:45;;;;;;;7.35;1.80;;;22.50;77.60;;;;;;5076114;28;20051;-63
2022/08/30 09:12:12;;;;;;;5.97;2.08;;;22.60;78.10;;;;;;5076300;28;20462;-63
2022/08/30 09:14:42;;;;;;;4.30;2.10;;;22.40;86.90;;;;;;5075965;28;20102;-64
2022/08/30 09:17:13;;;;;;;8.02;2.20;;;22.40;88.20;;;;;;5076112;28;20373;-63
2022/08/30 09:19:55;;;;;;;18.67;3.08;;;22.40;87.80;;;;;;5075847;28;20123;-63
2022/08/30 09:22:27;;;;;;;5.95;2.13;;;21.70;87.50;;;;;;5076026;28;20041;-63
2022/08/30 09:25:00;;;;;;;4.00;1.90;;;22.20;86.80;;;;;;5075935;28;20044;-63
2022/08/30 09:27:31;;;;;;;2.60;1.67;;;22.30;79.70;;;;;;5076099;28;20036;-63
2022/08/30 09:30:02;;;;;;;4.72;1.77;;;22.20;79.70;;;;;;5075804;28;20072;-63
2022/08/30 09:32:35;;;;;;;6.55;1.80;;;22.10;79.30;;;;;;5075750;28;20043;-63
2022/08/30 09:35:03;;;;;;;6.10;1.80;;;22.00;79.10;;;;;;5075540;28;20047;-64
2022/08/30 09:37:43;;;;;;;3.88;1.90;;;21.90;88.00;;;;;;5075649;28;20182;-63
2022/08/30 09:40:21;;;;;;;3.42;1.70;;;22.00;80.00;;;;;;5075655;28;20059;-63
2022/08/30 09:43:03;;;;;;;6.60;1.90;;;21.90;79.50;;;;;;5075738;28;20119;-63
2022/08/30 09:45:35;;;;;;;8.68;1.63;;;21.80;88.80;;;;;;5074961;28;20376;-63
2022/08/30 09:48:19;;;;;;;5.28;1.70;;;21.80;78.50;;;;;;5075727;28;20037;-64
2022/08/30 09:50:47;;;;;;;2.38;1.58;;;22.00;89.30;;;;;;5075623;28;20037;-63
2022/08/30 09:53:23;;;;;;;7.65;1.80;;;21.80;78.50;;;;;;5075607;28;20039;-63
2022/08/30 09:56:26;;;;;;;5.63;1.88;;;21.90;78.00;;;;;;5075198;28;20400;-63
2022/08/30 09:59:08;;;;;;;4.30;1.80;;;22.10;78.40;;;;;;5069387;28;20508;-63
2022/08/30 10:01:45;;;;;;;4.00;1.77;;;22.20;75.40;;;;;;5075350;28;20052;-63
2022/08/30 10:04:19;;;;;;;3.33;1.70;;;22.10;75.60;;;;;;5075102;28;20503;-63
2022/08/30 10:06:55;;;;;;;3.45;1.60;;;22.10;76.00;;;;;;5075414;28;20037;-63
2022/08/30 10:09:24;;;;;;;3.70;1.80;;;22.10;75.90;;;;;;5075604;28;20387;-63
2022/08/30 10:12:13;;;;;;;3.38;1.70;;;22.10;76.50;;;;;;5075315;28;20048;-63
2022/08/30 10:14:59;;;;;;;6.18;1.63;;;22.10;74.90;;;;;;5074888;28;20036;-64
2022/08/30 10:17:40;;;;;;;5.80;1.80;;;22.10;83.70;;;;;;5075237;28;20036;-63
2022/08/30 10:20:12;;;;;;;2.92;1.60;;;22.10;75.00;;;;;;5073849;28;20055;-63
2022/08/30 10:22:45;;;;;;;7.22;2.00;;;22.00;76.10;;;;;;5073757;28;20087;-62
2022/08/30 10:25:15;;;;;;;4.53;1.40;;;22.00;76.00;;;;;;5075126;28;20076;-63
2022/08/30 10:28:15;;;;;;;4.35;1.65;;;22.00;75.10;;;;;;5074978;28;20047;-63
2022/08/30 10:30:46;;;;;;;3.35;1.67;;;22.10;74.70;;;;;;5065760;28;20430;-63
2022/08/30 10:33:37;;;;;;;5.28;1.85;;;22.60;82.10;;;;;;5074538;28;20178;-64
2022/08/30 10:36:08;;;;;;;14.15;2.67;;;22.60;72.60;;;;;;5069577;28;20119;-63
2022/08/30 10:38:48;;;;;;;5.90;1.88;;;22.60;71.80;;;;;;5074720;28;20037;-63
2022/08/30 10:41:41;;;;;;;2.58;1.63;;;22.60;71.30;;;;;;5074332;28;20048;-64
2022/08/30 10:44:15;;;;;;;3.88;1.90;;;22.60;71.00;;;;;;5074511;28;20484;-64
2022/08/30 10:46:46;;;;;;;3.35;1.63;;;22.50;71.60;;;;;;5074818;28;20419;-64
2022/08/30 10:49:20;;;;;;;3.83;1.75;;;22.60;68.00;;;;;;5074363;28;20075;-64
2022/08/30 10:52:05;;;;;;;7.30;1.80;;;22.10;77.90;;;;;;5074648;28;20044;-64
2022/08/30 10:54:58;;;;;;;4.68;1.83;;;22.40;69.00;;;;;;5074481;28;20094;-64
2022/08/30 10:57:24;;;;;;;9.93;1.90;;;21.70;79.00;;;;;;5069931;28;20056;-64
2022/08/30 11:00:01;;;;;;;2.83;1.80;;;22.40;70.10;;;;;;5072670;28;20057;-63
2022/08/30 11:02:45;;;;;;;3.42;1.60;;;22.40;68.70;;;;;;5073834;28;20136;-63
2022/08/30 11:05:31;;;;;;;6.45;1.90;;;22.30;75.40;;;;;;5074108;28;20404;-63
2022/08/30 11:08:09;;;;;;;3.88;1.77;;;22.40;69.10;;;;;;5073920;28;20029;-63
2022/08/30 11:10:35;;;;;;;8.68;1.80;;;22.40;68.70;;;;;;5073674;28;20036;-63
2022/08/30 11:13:09;;;;;;;4.65;1.77;;;22.40;69.80;;;;;;5073763;28;20480;-64
2022/08/30 11:15:52;;;;;;;3.40;1.80;;;22.60;70.10;;;;;;5073736;28;20043;-63
2022/08/30 11:18:18;;;;;;;5.45;1.58;;;22.70;70.00;;;;;;5073866;28;20041;-64
2022/08/30 11:20:49;;;;;;;3.30;1.70;;;22.70;76.90;;;;;;5074103;28;20115;-64
2022/08/30 11:23:35;;;;;;;5.93;1.75;;;22.80;69.30;;;;;;5073462;28;20036;-64
2022/08/30 11:26:09;;;;;;;3.03;1.70;;;22.70;69.10;;;;;;5073829;28;20044;-64
2022/08/30 11:28:35;;;;;;;3.70;1.90;;;22.70;69.40;;;;;;5073789;28;20116;-63
2022/08/30 11:31:19;;;;;;;6.15;1.77;;;22.90;78.00;;;;;;5073694;28;20446;-64
2022/08/30 11:33:49;;;;;;;16.35;2.33;;;23.00;69.40;;;;;;5073566;28;20044;-65
2022/08/30 11:36:27;;;;;;;5.43;1.58;;;23.40;78.80;;;;;;5073261;28;20091;-64
2022/08/30 11:38:53;;;;;;;9.85;1.90;;;23.30;78.50;;;;;;5073471;28;20119;-64
2022/08/30 11:41:52;;;;;;;3.72;1.65;;;23.40;70.10;;;;;;5073184;28;20163;-64
2022/08/30 11:44:21;;;;;;;4.65;1.67;;;23.40;66.80;;;;;;5052047;28;20051;-64
2022/08/30 11:46:53;;;;;;;7.82;1.95;;;23.30;68.80;;;;;;5073395;28;20064;-65
2022/08/30 11:49:19;;;;;;;4.85;1.80;;;23.40;77.00;;;;;;5073485;28;20078;-64
2022/08/30 11:51:52;;;;;;;5.53;1.75;;;23.30;68.90;;;;;;5073298;28;20480;-65
2022/08/30 11:54:45;;;;;;;5.75;1.85;;;23.30;76.20;;;;;;5073535;28;20040;-64
2022/08/30 11:57:20;;;;;;;3.97;1.70;;;23.40;68.40;;;;;;5073351;28;20094;-64
2022/08/30 12:00:05;;;;;;;4.28;1.80;;;23.40;68.80;;;;;;5072924;28;20462;-64
2022/08/30 12:03:15;;;;;;;8.23;2.03;;;23.40;69.00;;;;;;5073556;28;20044;-65
2022/08/30 12:05:44;;;;;;;4.15;1.70;;;23.60;69.20;;;;;;5030965;28;20045;-65
2022/08/30 12:08:19;;;;;;;9.25;1.75;;;23.70;68.10;;;;;;5030506;28;20053;-65
2022/08/30 12:11:09;;;;;;;19.40;2.90;;;23.80;68.00;;;;;;5030939;28;20099;-65
2022/08/30 12:13:37;;;;;;;4.38;1.50;;;23.50;67.40;;;;;;5030925;28;20409;-64
2022/08/30 12:16:11;;;;;;;2.67;1.48;;;23.50;69.10;;;;;;5030785;28;20140;-65
2022/08/30 12:18:46;;;;;;;7.80;1.83;;;23.10;77.40;;;;;;5031107;28;20147;-65
2022/08/30 12:21:16;;;;;;;4.53;1.42;;;23.90;68.30;;;;;;5014384;28;20045;-65
2022/08/30 12:24:03;;;;;;;17.50;2.10;;;24.00;66.90;;;;;;5030581;28;20100;-65
2022/08/30 12:26:35;;;;;;;7.88;1.70;;;24.00;67.00;;;;;;4997980;28;20049;-65
2022/08/30 12:29:27;;;;;;;5.78;1.42;;;24.00;66.50;;;;;;5030827;28;20088;-66
2022/08/30 12:32:02;;;;;;;2.65;1.52;;;24.10;65.90;;;;;;5014138;28;20045;-65
2022/08/30 12:34:30;;;;;;;3.33;1.50;;;24.10;66.40;;;;;;5030749;28;20548;-65
2022/08/30 12:37:22;;;;;;;2.13;1.40;;;24.10;66.80;;;;;;5040040;28;20140;-65
2022/08/30 12:40:05;;;;;;;3.90;1.42;;;24.00;66.00;;;;;;5072652;28;20552;-64
2022/08/30 12:42:37;;;;;;;1.90;1.35;;;23.70;74.70;;;;;;5054573;28;20072;-64
2022/08/30 12:45:15;;;;;;;2.53;1.40;;;23.60;74.30;;;;;;5072675;28;20047;-64
2022/08/30 12:47:53;;;;;;;2.58;1.50;;;23.70;67.30;;;;;;5072626;28;20055;-64
2022/08/30 12:50:28;;;;;;;3.92;1.50;;;23.60;67.70;;;;;;5072791;28;20047;-65
2022/08/30 12:53:02;;;;;;;4.85;1.60;;;23.70;68.20;;;;;;5072763;28;20036;-65
2022/08/30 12:55:31;;;;;;;3.85;1.48;;;23.80;68.40;;;;;;5072895;28;20037;-64
2022/08/30 12:58:09;;;;;;;3.90;1.70;;;24.00;68.10;;;;;;5072586;28;20127;-65
2022/08/30 13:00:38;;;;;;;2.88;1.50;;;24.20;67.80;;;;;;5054340;28;20056;-65
2022/08/30 13:03:35;;;;;;;5.28;1.50;;;24.30;67.10;;;;;;5072321;28;20476;-64
2022/08/30 13:06:02;;;;;;;2.17;1.50;;;24.20;65.60;;;;;;5072428;28;20032;-64
2022/08/30 13:08:44;;;;;;;1.75;1.40;;;24.00;66.90;;;;;;5071171;28;20036;-64
2022/08/30 13:11:25;;;;;;;2.05;1.42;;;23.90;67.10;;;;;;5072599;28;20105;-64
2022/08/30 13:13:53;;;;;;;2.80;1.27;;;23.90;67.30;;;;;;5071152;28;20086;-64